Time;durP1;ratioP1;P1;durP2;ratioP2;P2;SDS_P1;SDS_P2;PMS_P1;PMS_P2;Temp;Humidity;BMP_temperature;BMP_pressure;BME280_temperature;BME280_humidity;BME280_pressure;Samples;Min_cycle;Max_cycle;Signal;HPM_P1;HPM_P2
2023/04/02 00:01:39;;;;;;;17.10;9.20;;;;;;;;;;5028075;28;20095;-71
2023/04/02 00:04:04;;;;;;;20.52;9.05;;;;;;;;;;5030735;28;20026;-71
2023/04/02 00:06:31;;;;;;;17.08;9.07;;;;;;;;;;5027875;28;21507;-71
2023/04/02 00:08:58;;;;;;;18.92;9.73;;;;;;;;;;5030640;28;20056;-71
2023/04/02 00:11:36;;;;;;;16.95;9.30;;;;;;;;;;5029445;28;20524;-71
2023/04/02 00:14:01;;;;;;;20.08;9.50;;;;;;;;;;5028518;28;20501;-71
2023/04/02 00:16:27;;;;;;;22.40;10.35;;;;;;;;;;5025200;28;20057;-71
2023/04/02 00:18:54;;;;;;;21.70;9.65;;;;;;;;;;5030618;28;20021;-71
2023/04/02 00:21:31;;;;;;;18.27;9.88;;;;;;;;;;5029006;28;20132;-71
2023/04/02 00:23:58;;;;;;;21.13;10.32;;;;;;;;;;5027438;28;20017;-71
2023/04/02 00:26:28;;;;;;;24.65;10.30;;;;;;;;;;5027397;28;20025;-71
2023/04/02 00:28:53;;;;;;;14.60;8.30;;;;;;;;;;5030203;28;20021;-71
2023/04/02 00:31:19;;;;;;;13.90;7.13;;;;;;;;;;5028508;28;20034;-71
2023/04/02 00:33:44;;;;;;;4.30;2.70;;;;;;;;;;5028006;28;20276;-70
2023/04/02 00:36:09;;;;;;;7.13;2.08;;;;;;;;;;5025488;28;20029;-71
2023/04/02 00:38:35;;;;;;;4.22;2.72;;;;;;;;;;5030751;28;20014;-71
2023/04/02 00:41:05;;;;;;;3.35;2.35;;;;;;;;;;5031971;28;20009;-71
2023/04/02 00:43:32;;;;;;;2.92;1.95;;;;;;;;;;5031015;28;20033;-71
2023/04/02 00:46:02;;;;;;;4.53;2.40;;;;;;;;;;5032556;28;20082;-71
2023/04/02 00:48:30;;;;;;;2.88;2.00;;;;;;;;;;5029824;28;20047;-71
2023/04/02 00:50:57;;;;;;;2.53;1.80;;;;;;;;;;5032150;28;20021;-70
2023/04/02 00:53:29;;;;;;;4.80;2.38;;;;;;;;;;5028857;28;20022;-71
2023/04/02 00:55:56;;;;;;;7.68;2.55;;;;;;;;;;5029066;28;20099;-71
2023/04/02 00:58:26;;;;;;;3.47;2.22;;;;;;;;;;5030974;28;20026;-71
2023/04/02 01:00:51;;;;;;;4.38;2.70;;;;;;;;;;5031923;28;20432;-71
2023/04/02 01:03:17;;;;;;;3.40;2.60;;;;;;;;;;5030706;28;20036;-70
2023/04/02 01:05:44;;;;;;;4.70;2.95;;;;;;;;;;5031263;28;20024;-70
2023/04/02 01:08:15;;;;;;;3.35;2.72;;;;;;;;;;5028399;28;20620;-71
2023/04/02 01:10:46;;;;;;;6.32;2.33;;;;;;;;;;5029645;28;20045;-71
2023/04/02 01:13:11;;;;;;;5.20;2.80;;;;;;;;;;5028986;28;20018;-71
2023/04/02 01:15:40;;;;;;;3.38;2.20;;;;;;;;;;5028906;28;20048;-70
2023/04/02 01:18:18;;;;;;;3.88;2.22;;;;;;;;;;5029722;28;20022;-70
2023/04/02 01:21:02;;;;;;;2.88;2.28;;;;;;;;;;5028831;28;20381;-71
2023/04/02 01:23:31;;;;;;;3.85;2.45;;;;;;;;;;5030638;28;20028;-70
2023/04/02 01:26:12;;;;;;;6.10;2.47;;;;;;;;;;5027278;28;20025;-70
2023/04/02 01:28:50;;;;;;;6.03;2.38;;;;;;;;;;5027998;28;20021;-71
2023/04/02 01:31:16;;;;;;;5.57;2.05;;;;;;;;;;5029538;28;20036;-71
2023/04/02 01:33:41;;;;;;;2.40;1.85;;;;;;;;;;5029055;28;20026;-71
2023/04/02 01:36:09;;;;;;;3.08;1.95;;;;;;;;;;5030622;28;20037;-71
2023/04/02 01:38:41;;;;;;;2.67;1.80;;;;;;;;;;5029663;28;20378;-71
2023/04/02 01:41:17;;;;;;;2.95;1.88;;;;;;;;;;5031264;28;20045;-71
2023/04/02 01:43:42;;;;;;;2.15;1.70;;;;;;;;;;5029493;28;20033;-71
2023/04/02 01:46:24;;;;;;;2.78;2.13;;;;;;;;;;5030088;28;20031;-71
2023/04/02 01:48:51;;;;;;;1.85;1.42;;;;;;;;;;5026394;28;20021;-71
2023/04/02 01:51:27;;;;;;;3.15;1.70;;;;;;;;;;5031268;28;20025;-71
2023/04/02 01:53:52;;;;;;;3.28;2.15;;;;;;;;;;5028480;28;20417;-71
2023/04/02 01:56:18;;;;;;;2.88;2.00;;;;;;;;;;5025456;28;20112;-71
2023/04/02 01:58:44;;;;;;;2.05;1.45;;;;;;;;;;5030239;28;20107;-71
2023/04/02 02:01:15;;;;;;;2.05;1.70;;;;;;;;;;5028369;28;20462;-71
2023/04/02 02:03:41;;;;;;;6.40;2.10;;;;;;;;;;5027809;28;20387;-71
2023/04/02 02:06:10;;;;;;;2.20;1.77;;;;;;;;;;5028771;28;20041;-71
2023/04/02 02:08:37;;;;;;;2.70;2.17;;;;;;;;;;5028363;28;20013;-71
2023/04/02 02:11:03;;;;;;;4.75;2.65;;;;;;;;;;5028520;28;20029;-71
2023/04/02 02:13:28;;;;;;;5.88;2.00;;;;;;;;;;5026584;28;20644;-71
2023/04/02 02:15:56;;;;;;;3.47;2.50;;;;;;;;;;5027038;28;20112;-71
2023/04/02 02:18:26;;;;;;;3.10;2.70;;;;;;;;;;5028195;28;20048;-71
2023/04/02 02:20:51;;;;;;;;;;;;;;;;;;5024152;28;20043;-71
2023/04/02 02:23:17;;;;;;;3.10;2.40;;;;;;;;;;5028368;28;20011;-71
2023/04/02 02:25:44;;;;;;;3.92;2.33;;;;;;;;;;5027603;28;20088;-71
2023/04/02 02:28:30;;;;;;;6.63;2.50;;;;;;;;;;5029208;28;20393;-71
2023/04/02 02:30:55;;;;;;;7.22;2.33;;;;;;;;;;5024093;28;20494;-71
2023/04/02 02:33:22;;;;;;;6.70;2.42;;;;;;;;;;5025017;28;20060;-71
2023/04/02 02:35:59;;;;;;;3.60;2.33;;;;;;;;;;5026769;28;20212;-71
2023/04/02 02:38:27;;;;;;;6.20;2.70;;;;;;;;;;5024951;28;20021;-71
2023/04/02 02:40:55;;;;;;;4.18;2.80;;;;;;;;;;5028199;28;20021;-71
2023/04/02 02:43:20;;;;;;;3.55;2.42;;;;;;;;;;5028696;28;20528;-71
2023/04/02 02:45:46;;;;;;;4.78;2.58;;;;;;;;;;5029688;28;20026;-71
2023/04/02 02:48:13;;;;;;;3.20;2.60;;;;;;;;;;5029806;28;20077;-71
2023/04/02 02:50:40;;;;;;;3.90;2.50;;;;;;;;;;5027601;28;20077;-71
2023/04/02 02:53:14;;;;;;;4.63;2.65;;;;;;;;;;5027166;28;20052;-70
2023/04/02 02:55:40;;;;;;;3.28;2.17;;;;;;;;;;5029902;28;20462;-70
2023/04/02 02:58:08;;;;;;;3.80;2.90;;;;;;;;;;5027405;28;20026;-70
2023/04/02 03:00:34;;;;;;;4.13;3.17;;;;;;;;;;5029458;28;20021;-70
2023/04/02 03:03:03;;;;;;;3.95;3.00;;;;;;;;;;5028691;28;20076;-71
2023/04/02 03:05:28;;;;;;;6.95;3.50;;;;;;;;;;5029337;28;20025;-70
2023/04/02 03:07:55;;;;;;;5.07;3.70;;;;;;;;;;5028444;28;20017;-70
2023/04/02 03:10:23;;;;;;;5.35;3.30;;;;;;;;;;5028477;28;20466;-70
2023/04/02 03:13:08;;;;;;;6.95;4.15;;;;;;;;;;5025093;28;20025;-71
2023/04/02 03:15:42;;;;;;;5.15;3.95;;;;;;;;;;5025203;28;20104;-71
2023/04/02 03:18:15;;;;;;;6.18;4.20;;;;;;;;;;5026418;28;20025;-71
2023/04/02 03:20:48;;;;;;;6.75;4.25;;;;;;;;;;5026315;28;20029;-71
2023/04/02 03:23:21;;;;;;;9.25;4.07;;;;;;;;;;5026824;28;20493;-71
2023/04/02 03:25:54;;;;;;;7.80;4.90;;;;;;;;;;5026124;28;20017;-71
2023/04/02 03:28:22;;;;;;;7.35;4.53;;;;;;;;;;5023236;28;20036;-70
2023/04/02 03:30:49;;;;;;;7.75;5.53;;;;;;;;;;5026959;28;20382;-70
2023/04/02 03:33:26;;;;;;;7.72;5.07;;;;;;;;;;5030007;28;20014;-70
2023/04/02 03:36:01;;;;;;;11.80;5.25;;;;;;;;;;5032411;28;20041;-70
2023/04/02 03:38:30;;;;;;;8.38;5.13;;;;;;;;;;5028083;28;20359;-70
2023/04/02 03:41:05;;;;;;;8.02;5.35;;;;;;;;;;5028359;28;20055;-71
2023/04/02 03:43:38;;;;;;;8.95;5.93;;;;;;;;;;5029385;28;20025;-71
2023/04/02 03:46:15;;;;;;;8.70;5.53;;;;;;;;;;5027827;28;20029;-71
2023/04/02 03:48:43;;;;;;;9.93;5.32;;;;;;;;;;5030934;28;20030;-71
2023/04/02 03:51:13;;;;;;;9.65;6.43;;;;;;;;;;5031253;28;20152;-71
2023/04/02 03:53:38;;;;;;;8.63;5.60;;;;;;;;;;5028107;28;20080;-71
2023/04/02 03:56:04;;;;;;;8.63;5.40;;;;;;;;;;5031292;28;20017;-71
2023/04/02 03:58:39;;;;;;;7.30;4.85;;;;;;;;;;5029374;28;20268;-71
2023/04/02 04:01:12;;;;;;;9.02;5.97;;;;;;;;;;5028614;28;20621;-71
2023/04/02 04:03:37;;;;;;;7.88;5.13;;;;;;;;;;5031318;28;20036;-71
2023/04/02 04:06:13;;;;;;;8.20;4.82;;;;;;;;;;5030904;28;20426;-71
2023/04/02 04:08:53;;;;;;;6.45;4.35;;;;;;;;;;5030698;28;20446;-71
2023/04/02 04:11:18;;;;;;;;;;;;;;;;;;5031384;28;20120;-71
2023/04/02 04:13:56;;;;;;;9.77;4.63;;;;;;;;;;5031071;28;19995;-71
2023/04/02 04:16:25;;;;;;;7.43;5.25;;;;;;;;;;5029078;28;20022;-71
2023/04/02 04:19:02;;;;;;;5.80;4.05;;;;;;;;;;5027751;28;20024;-71
2023/04/02 04:21:35;;;;;;;8.00;4.38;;;;;;;;;;5028284;28;20022;-71
2023/04/02 04:24:02;;;;;;;6.68;4.35;;;;;;;;;;5027478;28;20140;-71
2023/04/02 04:26:29;;;;;;;6.60;4.30;;;;;;;;;;5030745;28;20052;-71
2023/04/02 04:29:11;;;;;;;4.72;3.53;;;;;;;;;;5029818;28;20385;-71
2023/04/02 04:31:48;;;;;;;6.75;4.32;;;;;;;;;;5029486;28;20036;-71
2023/04/02 04:34:19;;;;;;;6.05;3.97;;;;;;;;;;5027589;28;20010;-71
2023/04/02 04:36:55;;;;;;;7.32;4.47;;;;;;;;;;5029446;28;20030;-71
2023/04/02 04:39:28;;;;;;;6.18;4.80;;;;;;;;;;5030456;28;20075;-70
2023/04/02 04:41:54;;;;;;;7.03;4.90;;;;;;;;;;5028382;28;20021;-70
2023/04/02 04:44:24;;;;;;;5.88;4.03;;;;;;;;;;5029437;28;20024;-70
2023/04/02 04:47:06;;;;;;;5.43;4.53;;;;;;;;;;5028837;28;20021;-71
2023/04/02 04:49:34;;;;;;;7.53;4.68;;;;;;;;;;5025759;28;20088;-71
2023/04/02 04:52:06;;;;;;;7.95;4.85;;;;;;;;;;5028163;28;20497;-71
2023/04/02 04:54:31;;;;;;;6.07;4.32;;;;;;;;;;5029426;28;20466;-70
2023/04/02 04:56:59;;;;;;;7.90;4.60;;;;;;;;;;5029585;28;20017;-70
2023/04/02 04:59:34;;;;;;;6.57;4.50;;;;;;;;;;5026492;28;20264;-71
2023/04/02 05:01:59;;;;;;;7.78;4.80;;;;;;;;;;5027052;28;20037;-70
2023/04/02 05:04:33;;;;;;;9.60;5.20;;;;;;;;;;5026747;28;20109;-70
2023/04/02 05:06:58;;;;;;;6.25;4.50;;;;;;;;;;5028544;28;20272;-70
2023/04/02 05:09:41;;;;;;;7.57;5.28;;;;;;;;;;5029792;28;20021;-70
2023/04/02 05:12:25;;;;;;;7.20;4.93;;;;;;;;;;5027736;28;20288;-71
2023/04/02 05:14:55;;;;;;;7.10;5.18;;;;;;;;;;5027893;28;20021;-71
2023/04/02 05:17:25;;;;;;;6.88;4.95;;;;;;;;;;5026846;28;20380;-71
2023/04/02 05:20:10;;;;;;;7.05;4.68;;;;;;;;;;5029441;28;20075;-71
2023/04/02 05:22:44;;;;;;;8.77;6.03;;;;;;;;;;5028029;28;20025;-71
2023/04/02 05:25:24;;;;;;;7.53;5.30;;;;;;;;;;5027888;28;20402;-71
2023/04/02 05:27:51;;;;;;;8.45;5.53;;;;;;;;;;5028215;28;20026;-70
2023/04/02 05:30:22;;;;;;;8.65;5.57;;;;;;;;;;5028282;28;20075;-71
2023/04/02 05:33:01;;;;;;;9.45;6.63;;;;;;;;;;5042169;28;20017;-70
2023/04/02 05:35:40;;;;;;;8.25;5.13;;;;;;;;;;5028664;28;20109;-70
2023/04/02 05:38:05;;;;;;;10.85;5.90;;;;;;;;;;5030486;28;20024;-70
2023/04/02 05:40:36;;;;;;;9.60;6.10;;;;;;;;;;5029667;28;20025;-70
2023/04/02 05:43:02;;;;;;;9.18;6.10;;;;;;;;;;5028917;28;20028;-70
2023/04/02 05:45:33;;;;;;;8.95;5.25;;;;;;;;;;5027227;28;20037;-70
2023/04/02 05:48:00;;;;;;;8.43;5.45;;;;;;;;;;5025871;28;20462;-70
2023/04/02 05:50:35;;;;;;;9.40;5.68;;;;;;;;;;5026495;28;20367;-70
2023/04/02 05:53:12;;;;;;;8.57;5.15;;;;;;;;;;5030483;28;20030;-71
2023/04/02 05:55:43;;;;;;;8.18;6.03;;;;;;;;;;5028988;28;20029;-70
2023/04/02 05:58:25;;;;;;;9.15;5.93;;;;;;;;;;5025903;28;20029;-70
2023/04/02 06:00:55;;;;;;;8.73;5.53;;;;;;;;;;5026329;28;20024;-70
2023/04/02 06:03:35;;;;;;;9.55;5.95;;;;;;;;;;5028322;28;20087;-70
2023/04/02 06:06:04;;;;;;;8.55;5.60;;;;;;;;;;5026490;28;20148;-70
2023/04/02 06:08:34;;;;;;;11.02;5.60;;;;;;;;;;5025545;28;20036;-70
2023/04/02 06:11:03;;;;;;;9.32;5.63;;;;;;;;;;5025413;28;20021;-70
2023/04/02 06:13:28;;;;;;;11.13;6.47;;;;;;;;;;5028633;28;20023;-70
2023/04/02 06:15:54;;;;;;;9.23;5.38;;;;;;;;;;5024733;28;20096;-70
2023/04/02 06:18:22;;;;;;;10.18;5.90;;;;;;;;;;5026289;28;20056;-70
2023/04/02 06:20:47;;;;;;;10.75;5.82;;;;;;;;;;5026125;28;20543;-70
2023/04/02 06:23:15;;;;;;;9.38;5.53;;;;;;;;;;5025320;28;20121;-70
2023/04/02 06:25:43;;;;;;;10.93;5.95;;;;;;;;;;5030100;28;20018;-70
2023/04/02 06:28:13;;;;;;;9.02;5.95;;;;;;;;;;5028096;28;20142;-70
2023/04/02 06:30:39;;;;;;;9.13;5.77;;;;;;;;;;5027210;28;20044;-70
2023/04/02 06:33:05;;;;;;;10.15;6.55;;;;;;;;;;5027214;28;20518;-70
2023/04/02 06:35:31;;;;;;;12.55;7.03;;;;;;;;;;5027408;28;20017;-70
2023/04/02 06:37:58;;;;;;;12.00;6.80;;;;;;;;;;5030153;28;20013;-70
2023/04/02 06:40:26;;;;;;;15.02;6.80;;;;;;;;;;5028873;28;20070;-70
2023/04/02 06:42:56;;;;;;;10.98;7.15;;;;;;;;;;5029846;28;20155;-70
2023/04/02 06:45:23;;;;;;;13.38;7.30;;;;;;;;;;5026868;28;20017;-70
2023/04/02 06:47:50;;;;;;;11.68;6.85;;;;;;;;;;5026139;28;20033;-70
2023/04/02 06:50:18;;;;;;;15.48;8.15;;;;;;;;;;5027630;28;20018;-70
2023/04/02 06:52:47;;;;;;;15.85;8.00;;;;;;;;;;5027026;28;20422;-70
2023/04/02 06:55:23;;;;;;;16.83;9.00;;;;;;;;;;5024985;28;20017;-70
2023/04/02 06:57:48;;;;;;;12.93;7.80;;;;;;;;;;5023895;28;20291;-70
2023/04/02 07:00:34;;;;;;;14.50;7.57;;;;;;;;;;5029451;28;20020;-71
2023/04/02 07:03:01;;;;;;;18.20;8.40;;;;;;;;;;5025152;28;20090;-71
2023/04/02 07:05:26;;;;;;;21.15;8.10;;;;;;;;;;5026612;28;20032;-70
2023/04/02 07:07:52;;;;;;;15.32;7.95;;;;;;;;;;5032447;28;20021;-70
2023/04/02 07:10:19;;;;;;;16.50;7.95;;;;;;;;;;5028698;28;20023;-70
2023/04/02 07:12:44;;;;;;;17.08;7.97;;;;;;;;;;5030758;28;20056;-70
2023/04/02 07:15:13;;;;;;;15.25;8.50;;;;;;;;;;5032683;28;20014;-70
2023/04/02 07:17:38;;;;;;;15.38;7.35;;;;;;;;;;5032129;28;20034;-70
2023/04/02 07:20:04;;;;;;;13.13;8.37;;;;;;;;;;5029877;28;20025;-70
2023/04/02 07:22:29;;;;;;;14.07;7.63;;;;;;;;;;5034449;28;20255;-70
2023/04/02 07:24:55;;;;;;;17.27;7.43;;;;;;;;;;5027510;28;20486;-70
2023/04/02 07:27:20;;;;;;;14.35;7.43;;;;;;;;;;5030856;28;20300;-70
2023/04/02 07:29:45;;;;;;;16.15;7.13;;;;;;;;;;5032277;28;20025;-70
2023/04/02 07:32:11;;;;;;;13.75;7.40;;;;;;;;;;5031739;28;20473;-70
2023/04/02 07:34:36;;;;;;;17.25;7.22;;;;;;;;;;5031429;28;20026;-71
2023/04/02 07:37:02;;;;;;;15.88;8.15;;;;;;;;;;5029544;28;20029;-70
2023/04/02 07:39:27;;;;;;;14.55;7.40;;;;;;;;;;5030623;28;20029;-70
2023/04/02 07:41:54;;;;;;;14.40;7.83;;;;;;;;;;5029555;28;20132;-70
2023/04/02 07:44:19;;;;;;;19.25;8.07;;;;;;;;;;5029526;28;20271;-70
2023/04/02 07:46:44;;;;;;;16.98;7.15;;;;;;;;;;5032448;28;20025;-70
2023/04/02 07:49:10;;;;;;;18.13;8.50;;;;;;;;;;5031992;28;20013;-70
2023/04/02 07:51:36;;;;;;;15.43;7.50;;;;;;;;;;5032880;28;20034;-70
2023/04/02 07:54:01;;;;;;;17.30;8.10;;;;;;;;;;5032452;28;20258;-70
2023/04/02 07:56:27;;;;;;;12.60;8.23;;;;;;;;;;5030367;28;20021;-70
2023/04/02 07:58:52;;;;;;;18.98;8.18;;;;;;;;;;5032774;28;20486;-70
2023/04/02 08:01:19;;;;;;;17.38;8.70;;;;;;;;;;5028362;28;20056;-70
2023/04/02 08:03:45;;;;;;;19.42;8.38;;;;;;;;;;5025873;28;20017;-70
2023/04/02 08:06:11;;;;;;;16.58;7.60;;;;;;;;;;5031902;28;20112;-70
2023/04/02 08:08:36;;;;;;;19.48;8.88;;;;;;;;;;5032788;28;20096;-70
2023/04/02 08:11:01;;;;;;;16.48;8.60;;;;;;;;;;5026340;28;20105;-70
2023/04/02 08:13:26;;;;;;;18.33;8.23;;;;;;;;;;5031992;28;20532;-71
2023/04/02 08:15:52;;;;;;;16.17;7.83;;;;;;;;;;5028629;28;20322;-70
2023/04/02 08:18:20;;;;;;;20.15;8.57;;;;;;;;;;5030647;28;20739;-70
2023/04/02 08:20:45;;;;;;;16.35;9.10;;;;;;;;;;5032539;28;20418;-71
2023/04/02 08:23:15;;;;;;;18.13;8.20;;;;;;;;;;5028396;28;20029;-70
2023/04/02 08:25:41;;;;;;;;;;;;;;;;;;5030243;28;20261;-70
2023/04/02 08:28:06;;;;;;;23.50;10.17;;;;;;;;;;5031048;28;19911;-70
2023/04/02 08:30:31;;;;;;;18.83;9.23;;;;;;;;;;5027360;28;20290;-70
2023/04/02 08:32:56;;;;;;;17.30;8.98;;;;;;;;;;5025504;28;20327;-70
2023/04/02 08:35:22;;;;;;;17.98;8.68;;;;;;;;;;5031000;28;20029;-69
2023/04/02 08:37:47;;;;;;;19.48;9.73;;;;;;;;;;5032429;28;20018;-69
2023/04/02 08:40:19;;;;;;;18.65;8.82;;;;;;;;;;5030912;28;20082;-69
2023/04/02 08:43:07;;;;;;;20.52;9.50;;;;;;;;;;5027287;28;20017;-70
2023/04/02 08:45:45;;;;;;;19.88;8.50;;;;;;;;;;5028948;28;20438;-70
2023/04/02 08:48:11;;;;;;;18.88;7.75;;;;;;;;;;5029690;28;20023;-70
2023/04/02 08:50:38;;;;;;;17.80;7.18;;;;;;;;;;5031082;28;20037;-70
2023/04/02 08:53:06;;;;;;;18.48;7.85;;;;;;;;;;5030835;28;20018;-70
2023/04/02 08:55:46;;;;;;;12.75;7.60;;;;;;;;;;5029967;28;20018;-70
2023/04/02 08:58:20;;;;;;;18.65;7.57;;;;;;;;;;5030423;28;20044;-70
2023/04/02 09:00:47;;;;;;;15.10;7.18;;;;;;;;;;5030207;28;20029;-70
2023/04/02 09:03:12;;;;;;;17.35;7.32;;;;;;;;;;5029659;28;20091;-70
2023/04/02 09:05:39;;;;;;;19.33;8.15;;;;;;;;;;5029557;28;20029;-70
2023/04/02 09:08:13;;;;;;;16.83;6.72;;;;;;;;;;5031058;28;20256;-70
2023/04/02 09:10:41;;;;;;;13.27;6.85;;;;;;;;;;5029689;28;20029;-70
2023/04/02 09:13:12;;;;;;;16.08;6.70;;;;;;;;;;5030601;28;20021;-70
2023/04/02 09:15:37;;;;;;;15.38;5.93;;;;;;;;;;5026952;28;20025;-70
2023/04/02 09:18:11;;;;;;;18.05;7.20;;;;;;;;;;5028158;28;20478;-70
2023/04/02 09:20:37;;;;;;;13.85;6.35;;;;;;;;;;5030551;28;20068;-70
2023/04/02 09:23:02;;;;;;;12.48;6.38;;;;;;;;;;5028445;28;20131;-70
2023/04/02 09:25:30;;;;;;;16.70;6.70;;;;;;;;;;5025265;28;20033;-70
2023/04/02 09:27:56;;;;;;;11.63;5.95;;;;;;;;;;5028123;28;20020;-70
2023/04/02 09:30:31;;;;;;;11.82;6.40;;;;;;;;;;5027605;28;20026;-69
2023/04/02 09:33:06;;;;;;;13.30;6.93;;;;;;;;;;5030550;28;20536;-70
2023/04/02 09:35:32;;;;;;;16.13;7.13;;;;;;;;;;5028931;28;20010;-70
2023/04/02 09:38:09;;;;;;;16.00;7.30;;;;;;;;;;5029957;28;20390;-70
2023/04/02 09:40:45;;;;;;;15.52;6.10;;;;;;;;;;5026548;28;20025;-70
2023/04/02 09:43:15;;;;;;;12.88;6.18;;;;;;;;;;5030684;28;20044;-70
2023/04/02 09:45:41;;;;;;;14.88;7.20;;;;;;;;;;5030012;28;20390;-70
2023/04/02 09:48:28;;;;;;;17.15;7.55;;;;;;;;;;5027326;28;20026;-70
2023/04/02 09:51:23;;;;;;;15.52;8.15;;;;;;;;;;5028320;28;20017;-70
2023/04/02 09:54:03;;;;;;;13.70;7.45;;;;;;;;;;5012970;28;20119;-70
2023/04/02 09:56:29;;;;;;;17.58;7.90;;;;;;;;;;5027284;28;20028;-69
2023/04/02 09:59:03;;;;;;;17.75;7.65;;;;;;;;;;5023129;28;20098;-70
2023/04/02 10:01:31;;;;;;;15.38;6.68;;;;;;;;;;5024550;28;20568;-70
2023/04/02 10:03:58;;;;;;;11.90;6.85;;;;;;;;;;5021114;28;20018;-70
2023/04/02 10:06:24;;;;;;;14.05;7.20;;;;;;;;;;5026178;28;20473;-70
2023/04/02 10:08:49;;;;;;;13.80;7.40;;;;;;;;;;5026660;28;20026;-70
2023/04/02 10:11:25;;;;;;;12.37;6.30;;;;;;;;;;5030203;28;20462;-70
2023/04/02 10:13:58;;;;;;;13.25;6.43;;;;;;;;;;5028805;28;20838;-70
2023/04/02 10:16:32;;;;;;;16.40;7.35;;;;;;;;;;5024661;28;20036;-70
2023/04/02 10:18:59;;;;;;;12.32;5.88;;;;;;;;;;5030400;28;20013;-70
2023/04/02 10:21:27;;;;;;;12.70;7.40;;;;;;;;;;5023091;28;20029;-70
2023/04/02 10:23:52;;;;;;;14.30;7.38;;;;;;;;;;5028596;28;20100;-70
2023/04/02 10:26:19;;;;;;;15.23;6.47;;;;;;;;;;5029649;28;20109;-70
2023/04/02 10:28:47;;;;;;;13.50;6.15;;;;;;;;;;5033511;28;20009;-70
2023/04/02 10:31:21;;;;;;;15.80;5.57;;;;;;;;;;5029450;28;20036;-70
2023/04/02 10:33:48;;;;;;;16.52;6.60;;;;;;;;;;5020492;28;20014;-70
2023/04/02 10:36:43;;;;;;;11.90;5.72;;;;;;;;;;5027164;28;20029;-70
2023/04/02 10:39:14;;;;;;;14.02;6.72;;;;;;;;;;5019150;28;20022;-69
2023/04/02 10:41:51;;;;;;;11.13;6.03;;;;;;;;;;5029471;28;20033;-68
2023/04/02 10:44:22;;;;;;;13.05;6.65;;;;;;;;;;5030072;28;20436;-68
2023/04/02 10:46:57;;;;;;;13.23;6.72;;;;;;;;;;5022819;28;20104;-68
2023/04/02 10:49:22;;;;;;;11.05;5.60;;;;;;;;;;5029271;28;20469;-69
2023/04/02 10:51:53;;;;;;;17.50;6.40;;;;;;;;;;5029895;28;20082;-69
2023/04/02 10:54:21;;;;;;;10.40;5.72;;;;;;;;;;5029089;28;20025;-68
2023/04/02 10:56:46;;;;;;;10.65;5.70;;;;;;;;;;5025435;28;20014;-69
2023/04/02 10:59:32;;;;;;;9.60;5.80;;;;;;;;;;5028982;28;20026;-68
2023/04/02 11:01:58;;;;;;;12.23;5.80;;;;;;;;;;5025913;28;20041;-69
2023/04/02 11:04:26;;;;;;;15.18;6.75;;;;;;;;;;5027120;28;20031;-68
2023/04/02 11:06:57;;;;;;;14.35;5.93;;;;;;;;;;5029757;28;20466;-69
2023/04/02 11:09:26;;;;;;;9.70;6.07;;;;;;;;;;5024587;28;20075;-68
2023/04/02 11:11:54;;;;;;;15.48;6.20;;;;;;;;;;5028949;28;20028;-69
2023/04/02 11:14:21;;;;;;;13.85;6.82;;;;;;;;;;5025594;28;20036;-68
2023/04/02 11:16:49;;;;;;;17.25;6.10;;;;;;;;;;5023873;28;20539;-68
2023/04/02 11:19:15;;;;;;;11.52;6.63;;;;;;;;;;5027986;28;20014;-69
2023/04/02 11:21:44;;;;;;;14.75;6.40;;;;;;;;;;5027016;28;20721;-68
2023/04/02 11:24:35;;;;;;;9.55;6.20;;;;;;;;;;5028345;28;20061;-70
2023/04/02 11:27:10;;;;;;;13.13;6.22;;;;;;;;;;5025565;28;20025;-68
2023/04/02 11:29:37;;;;;;;14.73;6.53;;;;;;;;;;5027554;28;20490;-68
2023/04/02 11:32:11;;;;;;;10.75;6.30;;;;;;;;;;5029374;28;20020;-69
2023/04/02 11:34:39;;;;;;;15.98;7.70;;;;;;;;;;5027713;28;20021;-69
2023/04/02 11:37:07;;;;;;;11.98;7.15;;;;;;;;;;5028795;28;20016;-68
2023/04/02 11:39:48;;;;;;;11.40;6.45;;;;;;;;;;5026840;28;20386;-69
2023/04/02 11:42:20;;;;;;;13.27;6.63;;;;;;;;;;5029232;28;20021;-68
2023/04/02 11:44:45;;;;;;;10.93;6.15;;;;;;;;;;5029251;28;20032;-68
2023/04/02 11:47:17;;;;;;;12.50;6.93;;;;;;;;;;5028640;28;20033;-69
2023/04/02 11:49:54;;;;;;;15.35;5.97;;;;;;;;;;5027097;28;20272;-68
2023/04/02 11:52:49;;;;;;;11.85;6.32;;;;;;;;;;5027249;28;20029;-69
2023/04/02 11:55:17;;;;;;;9.35;6.38;;;;;;;;;;5020314;28;20044;-68
2023/04/02 11:57:55;;;;;;;19.15;6.18;;;;;;;;;;5031881;28;20616;-67
2023/04/02 12:00:27;;;;;;;11.23;6.75;;;;;;;;;;5030901;28;20021;-68
2023/04/02 12:03:03;;;;;;;12.52;6.07;;;;;;;;;;5028423;28;20494;-69
2023/04/02 12:06:01;;;;;;;12.82;7.15;;;;;;;;;;5030166;28;20063;-68
2023/04/02 12:08:36;;;;;;;15.38;6.38;;;;;;;;;;4984638;28;20083;-69
2023/04/02 12:11:02;;;;;;;10.98;6.40;;;;;;;;;;5032385;28;20070;-68
2023/04/02 12:13:39;;;;;;;14.55;6.93;;;;;;;;;;5029050;28;20025;-69
2023/04/02 12:16:05;;;;;;;14.02;6.13;;;;;;;;;;5031332;28;20101;-69
2023/04/02 12:18:31;;;;;;;10.85;5.65;;;;;;;;;;5031787;28;20105;-68
2023/04/02 12:20:56;;;;;;;14.80;6.60;;;;;;;;;;5031711;28;20021;-69
2023/04/02 12:23:25;;;;;;;12.15;5.50;;;;;;;;;;5031366;28;20022;-69
2023/04/02 12:25:57;;;;;;;11.18;5.20;;;;;;;;;;5032459;28;20025;-68
2023/04/02 12:28:23;;;;;;;9.65;6.15;;;;;;;;;;5028208;28;20047;-68
2023/04/02 12:30:49;;;;;;;10.77;5.32;;;;;;;;;;5031820;28;20501;-69
2023/04/02 12:33:29;;;;;;;9.15;5.68;;;;;;;;;;5031431;28;20706;-69
2023/04/02 12:35:56;;;;;;;10.45;5.40;;;;;;;;;;5030102;28;20053;-69
2023/04/02 12:38:22;;;;;;;11.13;5.95;;;;;;;;;;5030123;28;20021;-69
2023/04/02 12:40:55;;;;;;;12.60;5.63;;;;;;;;;;5031096;28;20025;-69
2023/04/02 12:43:21;;;;;;;13.07;5.95;;;;;;;;;;5031703;28;20402;-68
2023/04/02 12:45:50;;;;;;;9.63;4.82;;;;;;;;;;5028929;28;20076;-69
2023/04/02 12:48:15;;;;;;;11.40;6.07;;;;;;;;;;5031247;28;20033;-69
2023/04/02 12:50:40;;;;;;;11.43;5.30;;;;;;;;;;5030020;28;20033;-69
2023/04/02 12:53:14;;;;;;;11.45;5.25;;;;;;;;;;5030636;28;20017;-68
2023/04/02 12:55:45;;;;;;;13.10;5.18;;;;;;;;;;5030800;28;20029;-69
2023/04/02 12:58:42;;;;;;;9.80;5.30;;;;;;;;;;5031591;28;20052;-69
2023/04/02 13:01:09;;;;;;;7.75;3.53;;;;;;;;;;5003393;28;20048;-69
2023/04/02 13:03:34;;;;;;;12.20;5.15;;;;;;;;;;5028212;28;20029;-69
2023/04/02 13:06:00;;;;;;;12.88;5.18;;;;;;;;;;5028078;28;20017;-69
2023/04/02 13:08:28;;;;;;;12.13;5.40;;;;;;;;;;5025431;28;20446;-68
2023/04/02 13:11:00;;;;;;;9.73;5.18;;;;;;;;;;5026086;28;20137;-68
2023/04/02 13:13:27;;;;;;;11.77;4.60;;;;;;;;;;5020056;28;20025;-68
2023/04/02 13:16:03;;;;;;;12.18;5.10;;;;;;;;;;5024870;28;20482;-70
2023/04/02 13:18:29;;;;;;;8.32;4.32;;;;;;;;;;5026810;28;20108;-70
2023/04/02 13:20:55;;;;;;;13.45;4.68;;;;;;;;;;5022178;28;20104;-70
2023/04/02 13:23:29;;;;;;;10.90;4.70;;;;;;;;;;5028748;28;20106;-70
2023/04/02 13:25:59;;;;;;;9.57;4.80;;;;;;;;;;5028818;28;20498;-69
2023/04/02 13:28:25;;;;;;;8.98;3.55;;;;;;;;;;5026436;28;20026;-70
2023/04/02 13:30:50;;;;;;;8.48;4.47;;;;;;;;;;5028094;28;20075;-70
2023/04/02 13:33:16;;;;;;;7.30;4.20;;;;;;;;;;5028203;28;20017;-70
2023/04/02 13:35:41;;;;;;;6.35;3.45;;;;;;;;;;5027151;28;21472;-69
2023/04/02 13:38:07;;;;;;;8.18;3.92;;;;;;;;;;5027595;28;20056;-69
2023/04/02 13:40:33;;;;;;;6.63;4.50;;;;;;;;;;5028105;28;20083;-69
2023/04/02 13:42:58;;;;;;;6.97;3.13;;;;;;;;;;5030052;28;20017;-69
2023/04/02 13:45:25;;;;;;;11.23;3.85;;;;;;;;;;5026079;28;20017;-69
2023/04/02 13:47:50;;;;;;;6.07;3.30;;;;;;;;;;5027482;28;20018;-69
2023/04/02 13:50:20;;;;;;;9.68;4.00;;;;;;;;;;5026794;28;20028;-69
2023/04/02 13:52:45;;;;;;;8.07;3.63;;;;;;;;;;5026583;28;20048;-69
2023/04/02 13:55:11;;;;;;;4.65;3.13;;;;;;;;;;5027207;28;20064;-69
2023/04/02 13:57:36;;;;;;;6.45;3.25;;;;;;;;;;5026157;28;20086;-69
2023/04/02 14:00:03;;;;;;;6.65;3.10;;;;;;;;;;5027814;28;20024;-69
2023/04/02 14:02:29;;;;;;;7.85;3.85;;;;;;;;;;5025929;28;20028;-69
2023/04/02 14:05:14;;;;;;;8.70;3.35;;;;;;;;;;5026201;28;20025;-69
2023/04/02 14:07:39;;;;;;;5.38;2.63;;;;;;;;;;5027318;28;20029;-69
2023/04/02 14:10:30;;;;;;;7.95;3.00;;;;;;;;;;5028047;28;20080;-69
2023/04/02 14:13:14;;;;;;;4.72;2.60;;;;;;;;;;5022892;28;20034;-69
2023/04/02 14:15:54;;;;;;;7.28;3.17;;;;;;;;;;5025070;28;20437;-69
2023/04/02 14:18:38;;;;;;;3.72;2.40;;;;;;;;;;5027050;28;20021;-69
2023/04/02 14:21:10;;;;;;;4.88;2.63;;;;;;;;;;5023940;28;20108;-69
2023/04/02 14:23:35;;;;;;;4.13;2.45;;;;;;;;;;5026787;28;20341;-70
2023/04/02 14:26:03;;;;;;;6.97;2.87;;;;;;;;;;5028356;28;20052;-69
2023/04/02 14:28:36;;;;;;;5.70;2.70;;;;;;;;;;5025309;28;20267;-70
2023/04/02 14:31:10;;;;;;;4.25;2.90;;;;;;;;;;5022569;28;20377;-69
2023/04/02 14:33:56;;;;;;;5.47;2.50;;;;;;;;;;5026004;28;20573;-69
2023/04/02 14:36:27;;;;;;;10.80;3.20;;;;;;;;;;5026965;28;20470;-67
2023/04/02 14:39:01;;;;;;;6.80;4.00;;;;;;;;;;5024657;28;20473;-69
2023/04/02 14:41:29;;;;;;;11.55;2.90;;;;;;;;;;5024581;28;20021;-69
2023/04/02 14:43:59;;;;;;;14.95;4.18;;;;;;;;;;5022211;28;20025;-69
2023/04/02 14:46:25;;;;;;;7.75;4.22;;;;;;;;;;5024965;28;20013;-69
2023/04/02 14:48:55;;;;;;;6.45;3.55;;;;;;;;;;5025814;28;20572;-69
2023/04/02 14:51:23;;;;;;;6.40;3.72;;;;;;;;;;5024940;28;20091;-70
2023/04/02 14:53:49;;;;;;;7.78;3.35;;;;;;;;;;5028335;28;20064;-70
2023/04/02 14:56:14;;;;;;;7.47;3.80;;;;;;;;;;5026806;28;20377;-70